createdAt,value
2018-03-21T00:01:55.866Z,6.70
2018-03-21T00:04:29.442Z,3.85
2018-03-21T00:07:03.239Z,7.07
2018-03-21T00:09:36.818Z,7.32
2018-03-21T00:12:10.402Z,7.25
2018-03-21T00:14:44.162Z,5.62
2018-03-21T00:17:17.805Z,8.73
2018-03-21T00:19:51.405Z,7.82
2018-03-21T00:22:25.139Z,11.12
2018-03-21T00:24:58.867Z,9.00
2018-03-21T00:27:32.679Z,4.70
2018-03-21T00:30:06.399Z,4.57
2018-03-21T00:32:39.973Z,5.12
2018-03-21T00:35:13.817Z,6.30
2018-03-21T00:37:47.591Z,6.78
2018-03-21T00:40:21.270Z,7.45
2018-03-21T00:42:54.844Z,6.65
2018-03-21T00:45:28.581Z,8.43
2018-03-21T00:48:02.158Z,6.22
2018-03-21T00:50:35.996Z,7.78
2018-03-21T00:53:09.593Z,11.30
2018-03-21T00:55:43.208Z,9.25
2018-03-21T00:58:16.715Z,8.00
2018-03-21T01:00:50.432Z,8.13
2018-03-21T01:03:24.328Z,8.88
2018-03-21T01:05:58.033Z,11.10
2018-03-21T01:08:31.647Z,8.00
2018-03-21T01:11:05.191Z,7.97
2018-03-21T01:13:38.831Z,10.88
2018-03-21T01:16:12.501Z,8.90
2018-03-21T01:18:46.074Z,10.23
2018-03-21T01:21:25.763Z,6.97
2018-03-21T01:23:59.438Z,9.98
2018-03-21T01:26:33.132Z,8.30
2018-03-21T01:29:06.914Z,9.10
2018-03-21T01:31:40.596Z,6.37
2018-03-21T01:34:14.412Z,6.28
2018-03-21T01:36:48.080Z,6.57
2018-03-21T01:39:21.926Z,7.05
2018-03-21T01:41:55.750Z,8.38
2018-03-21T01:44:29.541Z,6.93
2018-03-21T01:47:03.167Z,7.15
2018-03-21T01:49:36.875Z,6.57
2018-03-21T01:52:10.463Z,8.25
2018-03-21T01:54:44.023Z,4.68
2018-03-21T01:57:17.574Z,5.75
2018-03-21T01:59:51.111Z,5.87
2018-03-21T02:02:24.853Z,4.62
2018-03-21T02:04:58.974Z,6.12
2018-03-21T02:07:32.508Z,5.45
2018-03-21T02:10:06.151Z,6.57
2018-03-21T02:12:39.757Z,6.97
2018-03-21T02:15:13.339Z,8.55
2018-03-21T02:17:47.082Z,9.15
2018-03-21T02:20:20.903Z,7.95
2018-03-21T02:22:54.681Z,7.30
2018-03-21T02:25:28.272Z,8.30
2018-03-21T02:28:01.957Z,6.57
2018-03-21T02:30:35.703Z,8.18
2018-03-21T02:33:09.426Z,8.48
2018-03-21T02:35:43.022Z,5.18
2018-03-21T02:38:16.671Z,6.85
2018-03-21T02:40:50.250Z,6.05
2018-03-21T02:43:24.053Z,4.80
2018-03-21T02:45:57.634Z,10.50
2018-03-21T02:48:31.237Z,6.60
2018-03-21T02:51:04.805Z,6.68
2018-03-21T02:53:38.330Z,11.48
2018-03-21T02:56:11.936Z,8.60
2018-03-21T02:58:45.719Z,6.97
2018-03-21T03:01:19.312Z,5.07
2018-03-21T03:03:52.858Z,6.62
2018-03-21T03:06:26.493Z,6.90
2018-03-21T03:09:00.045Z,7.62
2018-03-21T03:11:33.683Z,5.97
2018-03-21T03:14:07.202Z,6.65
2018-03-21T03:16:40.844Z,6.43
2018-03-21T03:19:14.413Z,6.85
2018-03-21T03:21:47.970Z,5.87
2018-03-21T03:24:21.733Z,14.13
2018-03-21T03:26:55.290Z,12.68
2018-03-21T03:29:29.013Z,5.47
2018-03-21T03:32:02.597Z,7.55
2018-03-21T03:34:36.353Z,5.60
2018-03-21T03:37:10.210Z,10.40
2018-03-21T03:39:43.942Z,6.15
2018-03-21T03:42:17.517Z,6.72
2018-03-21T03:44:51.121Z,7.43
2018-03-21T03:47:24.737Z,9.38
2018-03-21T03:49:58.397Z,7.70
2018-03-21T03:52:31.978Z,8.82
2018-03-21T03:55:05.684Z,9.20
2018-03-21T03:57:39.282Z,8.20
2018-03-21T04:00:13.086Z,8.20
2018-03-21T04:02:46.649Z,12.15
2018-03-21T04:05:20.349Z,10.52
2018-03-21T04:07:54.102Z,6.95
2018-03-21T04:10:27.757Z,6.55
2018-03-21T04:13:01.338Z,11.82
2018-03-21T04:15:34.930Z,6.32
2018-03-21T04:18:09.007Z,9.32
2018-03-21T04:20:42.688Z,10.45
2018-03-21T04:23:16.300Z,7.82
2018-03-21T04:25:49.841Z,7.97
2018-03-21T04:28:23.462Z,10.68
2018-03-21T04:30:57.129Z,7.95
2018-03-21T04:33:30.712Z,11.05
2018-03-21T04:36:04.249Z,9.25
2018-03-21T04:38:37.913Z,11.18
2018-03-21T04:41:11.533Z,10.15
2018-03-21T04:43:45.082Z,8.43
2018-03-21T04:46:18.721Z,5.35
2018-03-21T04:48:52.368Z,7.55
2018-03-21T04:51:25.903Z,5.03
2018-03-21T04:53:59.465Z,7.45
2018-03-21T04:56:33.241Z,7.30
2018-03-21T04:59:06.779Z,8.00
2018-03-21T05:01:40.542Z,11.43
2018-03-21T05:04:14.247Z,7.78
2018-03-21T05:06:47.789Z,8.00
2018-03-21T05:09:21.383Z,14.75
2018-03-21T05:11:55.167Z,11.18
2018-03-21T05:14:28.893Z,9.32
2018-03-21T05:17:02.661Z,10.65
2018-03-21T05:19:36.206Z,13.73
2018-03-21T05:22:09.764Z,14.70
2018-03-21T05:24:43.266Z,15.88
2018-03-21T05:27:17.050Z,15.07
2018-03-21T05:29:50.629Z,20.02
2018-03-21T05:32:24.401Z,13.40
2018-03-21T05:34:58.546Z,14.63
2018-03-21T05:37:32.245Z,14.20
2018-03-21T05:40:05.827Z,12.85
2018-03-21T05:42:39.538Z,20.25
2018-03-21T05:45:13.073Z,19.20
2018-03-21T05:47:46.741Z,16.70
2018-03-21T05:50:21.201Z,17.80
2018-03-21T05:52:54.890Z,15.95
2018-03-21T05:55:28.537Z,18.10
2018-03-21T05:58:02.154Z,15.10
2018-03-21T06:00:35.878Z,18.10
2018-03-21T06:03:09.683Z,14.63
2018-03-21T06:05:43.339Z,21.27
2018-03-21T06:08:16.970Z,16.58
2018-03-21T06:10:50.573Z,15.95
2018-03-21T06:13:24.283Z,15.70
2018-03-21T06:15:57.872Z,12.70
2018-03-21T06:18:31.602Z,11.05
2018-03-21T06:21:05.198Z,12.93
2018-03-21T06:23:39.005Z,15.23
2018-03-21T06:26:12.557Z,13.13
2018-03-21T06:28:46.197Z,17.95
2018-03-21T06:31:19.763Z,14.68
2018-03-21T06:33:53.405Z,15.23
2018-03-21T06:36:27.250Z,15.65
2018-03-21T06:39:00.947Z,14.35
2018-03-21T06:41:34.545Z,15.40
2018-03-21T06:44:08.116Z,12.15
2018-03-21T06:46:41.738Z,10.95
2018-03-21T06:49:15.294Z,10.70
2018-03-21T06:51:48.894Z,11.25
2018-03-21T06:54:22.619Z,14.03
2018-03-21T06:56:56.421Z,11.87
2018-03-21T06:59:30.031Z,14.60
2018-03-21T07:02:03.693Z,24.30
2018-03-21T07:04:37.466Z,20.77
2018-03-21T07:07:11.150Z,24.67
2018-03-21T07:09:44.674Z,12.20
2018-03-21T07:12:18.430Z,9.60
2018-03-21T07:15:03.844Z,13.23
2018-03-21T07:17:37.610Z,13.60
2018-03-21T07:20:11.181Z,10.57
2018-03-21T07:22:44.814Z,15.40
2018-03-21T07:25:18.345Z,15.23
2018-03-21T07:27:51.897Z,12.27
2018-03-21T07:30:25.448Z,17.30
2018-03-21T07:32:59.002Z,12.60
2018-03-21T07:35:32.629Z,18.77
2018-03-21T07:38:06.157Z,14.83
2018-03-21T07:40:39.833Z,18.63
2018-03-21T07:43:13.462Z,12.30
2018-03-21T07:45:47.030Z,9.33
2018-03-21T07:48:20.594Z,11.03
2018-03-21T07:50:54.135Z,16.60
2018-03-21T07:53:27.749Z,19.47
2018-03-21T07:56:01.479Z,20.23
2018-03-21T07:58:35.062Z,19.67
2018-03-21T08:01:08.727Z,20.10
2018-03-21T08:03:42.449Z,25.67
2018-03-21T08:06:16.225Z,27.73
2018-03-21T08:08:49.791Z,32.43
2018-03-21T08:11:23.514Z,35.20
2018-03-21T08:13:57.196Z,38.40
2018-03-21T08:16:30.787Z,48.43
2018-03-21T08:19:04.401Z,45.40
2018-03-21T08:21:38.103Z,49.90
2018-03-21T08:24:11.655Z,51.33
2018-03-21T08:26:45.406Z,47.57
2018-03-21T08:29:19.058Z,69.67
2018-03-21T08:31:52.863Z,74.60
2018-03-21T08:34:26.609Z,76.97
2018-03-21T08:37:00.138Z,90.20
2018-03-21T08:39:33.839Z,73.60
2018-03-21T08:42:07.578Z,69.47
2018-03-21T08:44:41.215Z,72.90
2018-03-21T08:47:14.973Z,63.43
2018-03-21T08:49:48.619Z,55.57
2018-03-21T08:52:22.442Z,79.77
2018-03-21T08:54:56.220Z,77.33
2018-03-21T08:57:29.782Z,71.57
2018-03-21T09:00:03.479Z,71.77
2018-03-21T09:02:37.191Z,81.80
2018-03-21T09:05:10.858Z,84.83
2018-03-21T09:07:44.502Z,93.00
2018-03-21T09:10:18.223Z,103.63
2018-03-21T09:12:51.802Z,95.40
2018-03-21T09:15:25.510Z,102.73
2018-03-21T09:17:59.096Z,118.73
2018-03-21T09:20:32.753Z,98.73
2018-03-21T09:23:06.330Z,103.33
2018-03-21T09:25:40.030Z,83.53
2018-03-21T09:28:13.766Z,75.43
2018-03-21T09:30:47.365Z,135.60
2018-03-21T09:33:21.050Z,80.70
2018-03-21T09:35:54.645Z,87.50
2018-03-21T09:38:28.255Z,65.40
2018-03-21T09:41:01.862Z,73.57
2018-03-21T09:43:35.467Z,56.27
2018-03-21T09:46:09.142Z,63.03
2018-03-21T09:48:42.687Z,50.50
2018-03-21T09:51:16.270Z,52.13
2018-03-21T09:53:50.025Z,57.57
2018-03-21T09:56:23.567Z,57.63
2018-03-21T09:58:57.162Z,48.63
2018-03-21T10:01:30.694Z,44.43
2018-03-21T10:04:04.226Z,42.73
2018-03-21T10:06:37.794Z,37.10
2018-03-21T10:09:11.436Z,32.90
2018-03-21T10:11:45.242Z,38.03
2018-03-21T10:14:18.752Z,34.73
2018-03-21T10:16:52.407Z,38.00
2018-03-21T10:19:25.989Z,37.07
2018-03-21T10:21:59.763Z,43.03
2018-03-21T10:24:33.445Z,35.17
2018-03-21T10:27:07.105Z,37.93
2018-03-21T10:29:40.910Z,33.47
2018-03-21T10:32:14.473Z,30.93
2018-03-21T10:34:48.204Z,35.33
2018-03-21T10:37:21.846Z,28.03
2018-03-21T10:39:55.488Z,34.30
2018-03-21T10:42:29.214Z,32.60
2018-03-21T10:45:02.793Z,31.53
2018-03-21T10:47:36.426Z,36.30
2018-03-21T10:50:10.017Z,39.33
2018-03-21T10:52:43.538Z,37.83
2018-03-21T10:55:17.269Z,39.13
2018-03-21T10:57:50.851Z,44.23
2018-03-21T11:00:24.386Z,47.80
2018-03-21T11:03:02.902Z,47.53
2018-03-21T11:05:36.554Z,47.37
2018-03-21T11:08:10.179Z,41.03
2018-03-21T11:10:43.801Z,35.90
2018-03-21T11:13:17.638Z,29.40
2018-03-21T11:15:51.467Z,29.83
2018-03-21T11:18:24.998Z,31.57
2018-03-21T11:20:58.510Z,26.20
2018-03-21T11:23:32.186Z,27.40
2018-03-21T11:26:05.946Z,37.07
2018-03-21T11:28:39.517Z,27.90
2018-03-21T11:31:13.038Z,27.50
2018-03-21T11:33:46.657Z,27.50
2018-03-21T11:36:20.317Z,33.83
2018-03-21T11:38:53.849Z,29.67
2018-03-21T11:41:27.410Z,34.97
2018-03-21T11:44:00.970Z,38.03
2018-03-21T11:46:34.597Z,31.60
2018-03-21T11:49:08.146Z,33.33
2018-03-21T11:51:41.679Z,41.97
2018-03-21T11:54:15.457Z,38.73
2018-03-21T11:56:49.174Z,30.83
2018-03-21T11:59:22.874Z,32.13
2018-03-21T12:01:56.454Z,29.20
2018-03-21T12:04:30.022Z,31.00
2018-03-21T12:07:03.872Z,30.53
2018-03-21T12:09:37.783Z,28.23
2018-03-21T12:12:11.430Z,38.53
2018-03-21T12:14:45.032Z,35.53
2018-03-21T12:17:18.743Z,36.53
2018-03-21T12:19:52.350Z,33.20
2018-03-21T12:22:26.082Z,40.23
2018-03-21T12:24:59.677Z,29.77
2018-03-21T12:27:33.241Z,33.07
2018-03-21T12:30:06.798Z,34.97
2018-03-21T12:32:40.485Z,31.90
2018-03-21T12:35:14.055Z,31.00
2018-03-21T12:37:47.722Z,31.97
2018-03-21T12:40:21.294Z,27.17
2018-03-21T12:42:54.974Z,32.70
2018-03-21T12:45:28.757Z,36.33
2018-03-21T12:48:02.421Z,31.43
2018-03-21T12:50:35.940Z,26.63
2018-03-21T12:53:09.485Z,31.23
2018-03-21T12:55:43.071Z,34.00
2018-03-21T12:58:16.822Z,34.73
2018-03-21T13:00:50.367Z,30.87
2018-03-21T13:03:23.970Z,28.43
2018-03-21T13:05:57.545Z,33.37
2018-03-21T13:08:31.245Z,34.50
2018-03-21T13:11:04.941Z,33.23
2018-03-21T13:13:38.586Z,33.47
2018-03-21T13:16:12.266Z,36.77
2018-03-21T13:18:46.038Z,30.10
2018-03-21T13:21:19.781Z,35.00
2018-03-21T13:23:53.386Z,39.40
2018-03-21T13:26:27.022Z,36.13
2018-03-21T13:29:00.649Z,35.93
2018-03-21T13:31:34.263Z,35.63
2018-03-21T13:34:08.011Z,32.10
2018-03-21T13:36:41.601Z,28.90
2018-03-21T13:39:15.243Z,32.53
2018-03-21T13:41:48.780Z,28.43
2018-03-21T13:44:22.535Z,27.77
2018-03-21T13:46:56.117Z,28.03
2018-03-21T13:49:29.701Z,33.07
2018-03-21T13:52:03.250Z,36.70
2018-03-21T13:54:36.757Z,60.60
2018-03-21T13:57:22.693Z,31.03
2018-03-21T13:59:56.413Z,138.87
2018-03-21T14:02:30.045Z,28.17
2018-03-21T14:05:03.740Z,26.93
2018-03-21T14:07:37.356Z,27.27
2018-03-21T14:10:10.945Z,28.53
2018-03-21T14:12:44.449Z,30.57
2018-03-21T14:15:17.983Z,24.60
2018-03-21T14:17:51.569Z,27.97
2018-03-21T14:20:25.113Z,29.63
2018-03-21T14:22:58.931Z,28.70
2018-03-21T14:25:32.537Z,25.37
2018-03-21T14:28:06.061Z,24.33
2018-03-21T14:30:39.601Z,27.03
2018-03-21T14:33:13.297Z,29.97
2018-03-21T14:35:46.859Z,29.37
2018-03-21T14:38:20.394Z,30.33
2018-03-21T14:40:53.978Z,33.10
2018-03-21T14:43:27.508Z,29.90
2018-03-21T14:46:01.158Z,28.70
2018-03-21T14:48:34.783Z,27.17
2018-03-21T14:51:08.434Z,31.63
2018-03-21T14:53:42.129Z,30.17
2018-03-21T14:56:15.782Z,29.43
2018-03-21T14:58:49.579Z,36.00
2018-03-21T15:01:23.197Z,31.67
2018-03-21T15:03:56.777Z,30.63
2018-03-21T15:06:30.317Z,28.90
2018-03-21T15:09:03.898Z,28.27
2018-03-21T15:11:37.673Z,27.63
2018-03-21T15:14:11.267Z,40.73
2018-03-21T15:16:44.955Z,31.57
2018-03-21T15:19:18.790Z,30.43
2018-03-21T15:21:52.392Z,32.77
2018-03-21T15:24:25.997Z,31.00
2018-03-21T15:26:59.686Z,33.20
2018-03-21T15:29:33.503Z,34.63
2018-03-21T15:32:07.073Z,30.87
2018-03-21T15:34:40.950Z,33.33
2018-03-21T15:37:14.585Z,29.73
2018-03-21T15:39:48.232Z,31.40
2018-03-21T15:42:21.873Z,29.93
2018-03-21T15:44:55.686Z,28.30
2018-03-21T15:47:29.232Z,31.73
2018-03-21T15:50:02.845Z,27.13
2018-03-21T15:52:36.505Z,29.97
2018-03-21T15:55:10.185Z,29.53
2018-03-21T15:57:43.818Z,23.03
2018-03-21T16:00:17.375Z,22.63
2018-03-21T16:02:50.928Z,26.37
2018-03-21T16:05:24.606Z,22.30
2018-03-21T16:07:58.185Z,22.03
2018-03-21T16:10:31.830Z,19.33
2018-03-21T16:13:05.607Z,16.80
2018-03-21T16:15:39.154Z,15.37
2018-03-21T16:18:12.762Z,18.60
2018-03-21T16:20:46.395Z,18.97
2018-03-21T16:23:19.936Z,13.30
2018-03-21T16:25:53.657Z,17.70
2018-03-21T16:28:27.187Z,14.83
2018-03-21T16:31:00.938Z,16.90
2018-03-21T16:33:34.502Z,21.13
2018-03-21T16:36:08.124Z,17.27
2018-03-21T16:38:41.841Z,18.47
2018-03-21T16:41:15.494Z,20.73
2018-03-21T16:43:49.010Z,49.67
2018-03-21T16:46:22.565Z,73.83
2018-03-21T16:48:56.286Z,22.43
2018-03-21T16:51:29.994Z,17.10
2018-03-21T16:54:04.004Z,34.30
2018-03-21T16:56:37.489Z,33.63
2018-03-21T16:59:11.293Z,51.13
2018-03-21T17:01:44.827Z,83.17
2018-03-21T17:04:18.401Z,20.17
2018-03-21T17:06:52.162Z,19.80
2018-03-21T17:09:25.702Z,47.90
2018-03-21T17:11:59.326Z,93.20
2018-03-21T17:14:32.989Z,142.97
2018-03-21T17:17:06.519Z,253.60
2018-03-21T17:19:40.255Z,285.13
2018-03-21T17:22:13.814Z,124.80
2018-03-21T17:24:47.558Z,147.10
2018-03-21T17:27:21.154Z,107.83
2018-03-21T17:29:54.937Z,53.53
2018-03-21T17:32:28.681Z,43.57
2018-03-21T17:35:02.468Z,241.53
2018-03-21T17:37:36.272Z,188.60
2018-03-21T17:40:09.921Z,46.00
2018-03-21T17:42:43.495Z,99.80
2018-03-21T17:45:17.029Z,63.60
2018-03-21T17:47:50.614Z,29.63
2018-03-21T17:50:24.195Z,29.90
2018-03-21T17:52:57.779Z,20.23
2018-03-21T17:55:31.409Z,25.73
2018-03-21T17:58:04.966Z,27.77
2018-03-21T18:00:38.622Z,21.03
2018-03-21T18:03:12.273Z,21.10
2018-03-21T18:05:45.849Z,23.00
2018-03-21T18:08:19.589Z,22.67
2018-03-21T18:10:53.342Z,17.43
2018-03-21T18:13:26.868Z,19.53
2018-03-21T18:16:00.413Z,23.57
2018-03-21T18:18:34.003Z,17.63
2018-03-21T18:21:07.636Z,17.13
2018-03-21T18:23:41.158Z,24.40
2018-03-21T18:26:14.861Z,17.87
2018-03-21T18:28:48.673Z,19.87
2018-03-21T18:31:22.295Z,21.13
2018-03-21T18:33:55.858Z,20.87
2018-03-21T18:36:29.477Z,17.97
2018-03-21T18:39:03.055Z,15.77
2018-03-21T18:41:36.581Z,19.00
2018-03-21T18:44:10.430Z,19.70
2018-03-21T18:46:43.938Z,18.03
2018-03-21T18:49:17.635Z,21.33
2018-03-21T18:51:51.323Z,20.87
2018-03-21T18:54:25.054Z,25.53
2018-03-21T18:56:58.777Z,19.97
2018-03-21T18:59:32.526Z,18.13
2018-03-21T19:02:06.251Z,21.83
2018-03-21T19:04:39.938Z,17.97
2018-03-21T19:07:13.553Z,20.67
2018-03-21T19:09:47.255Z,19.83
2018-03-21T19:12:20.846Z,16.00
2018-03-21T19:14:54.607Z,24.23
2018-03-21T19:17:28.321Z,20.40
2018-03-21T19:20:01.908Z,20.80
2018-03-21T19:22:35.606Z,19.77
2018-03-21T19:25:09.327Z,14.07
2018-03-21T19:27:42.851Z,19.50
2018-03-21T19:30:16.587Z,21.80
2018-03-21T19:32:50.286Z,15.57
2018-03-21T19:35:24.047Z,23.17
2018-03-21T19:37:57.807Z,19.20
2018-03-21T19:40:31.466Z,19.60
2018-03-21T19:43:05.183Z,20.43
2018-03-21T19:45:38.959Z,21.73
2018-03-21T19:48:12.566Z,21.53
2018-03-21T19:50:46.262Z,19.67
2018-03-21T19:53:20.001Z,21.17
2018-03-21T19:55:53.691Z,24.50
2018-03-21T19:58:27.383Z,20.83
2018-03-21T20:01:01.048Z,22.23
2018-03-21T20:03:34.682Z,22.63
2018-03-21T20:06:08.409Z,20.67
2018-03-21T20:08:42.126Z,21.60
2018-03-21T20:11:15.715Z,20.37
2018-03-21T20:13:49.437Z,22.93
2018-03-21T20:16:23.006Z,26.57
2018-03-21T20:18:56.607Z,25.97
2018-03-21T20:21:30.310Z,21.63
2018-03-21T20:24:04.010Z,26.63
2018-03-21T20:26:37.732Z,20.70
2018-03-21T20:29:11.315Z,22.03
2018-03-21T20:31:44.957Z,28.03
2018-03-21T20:34:18.698Z,19.57
2018-03-21T20:36:52.350Z,21.03
2018-03-21T20:39:25.959Z,23.83
2018-03-21T20:41:59.537Z,27.20
2018-03-21T20:44:33.187Z,28.03
2018-03-21T20:47:06.734Z,24.93
2018-03-21T20:49:40.318Z,28.53
2018-03-21T20:52:13.975Z,24.93
2018-03-21T20:54:47.686Z,73.73
2018-03-21T20:57:21.527Z,559.53
2018-03-21T20:59:55.346Z,147.60
2018-03-21T21:02:28.970Z,36.13
2018-03-21T21:05:02.598Z,47.23
2018-03-21T21:07:36.181Z,27.57
2018-03-21T21:10:09.827Z,33.13
2018-03-21T21:12:43.438Z,28.50
2018-03-21T21:15:16.984Z,26.93
2018-03-21T21:17:50.825Z,27.90
2018-03-21T21:20:24.666Z,26.43
2018-03-21T21:22:58.211Z,26.27
2018-03-21T21:25:31.923Z,24.07
2018-03-21T21:28:05.574Z,25.77
2018-03-21T21:30:39.229Z,21.60
2018-03-21T21:33:12.955Z,29.70
2018-03-21T21:35:46.783Z,30.07
2018-03-21T21:38:20.466Z,29.90
2018-03-21T21:40:54.122Z,26.53
2018-03-21T21:43:27.722Z,32.77
2018-03-21T21:46:01.307Z,34.97
2018-03-21T21:48:35.228Z,30.13
2018-03-21T21:51:09.009Z,21.13
2018-03-21T21:53:42.711Z,29.23
2018-03-21T21:56:16.351Z,29.13
2018-03-21T21:58:50.142Z,37.03
2018-03-21T22:01:23.710Z,24.87
2018-03-21T22:03:57.430Z,32.23
2018-03-21T22:06:31.139Z,26.63
2018-03-21T22:09:04.738Z,29.00
2018-03-21T22:11:38.499Z,32.13
2018-03-21T22:14:12.234Z,26.10
2018-03-21T22:16:45.807Z,28.27
2018-03-21T22:19:19.498Z,27.80
2018-03-21T22:21:53.122Z,31.40
2018-03-21T22:24:26.826Z,26.07
2018-03-21T22:27:00.590Z,25.73
2018-03-21T22:29:34.149Z,31.93
2018-03-21T22:32:07.788Z,26.37
2018-03-21T22:34:41.591Z,33.47
2018-03-21T22:37:15.179Z,32.03
2018-03-21T22:39:49.018Z,30.17
2018-03-21T22:42:22.790Z,40.17
2018-03-21T22:44:56.446Z,27.90
2018-03-21T22:47:30.162Z,31.20
2018-03-21T22:50:03.777Z,30.83
2018-03-21T22:52:37.366Z,25.00
2018-03-21T22:55:10.959Z,24.93
2018-03-21T22:57:44.742Z,28.70
2018-03-21T23:00:18.529Z,26.97
2018-03-21T23:02:52.238Z,31.70
2018-03-21T23:05:25.798Z,31.13
2018-03-21T23:07:59.473Z,35.70
2018-03-21T23:10:33.069Z,34.73
2018-03-21T23:13:06.754Z,28.47
2018-03-21T23:15:40.377Z,35.33
2018-03-21T23:18:13.943Z,34.30
2018-03-21T23:20:47.692Z,28.53
2018-03-21T23:23:21.242Z,29.90
2018-03-21T23:25:55.018Z,29.20
2018-03-21T23:28:28.706Z,27.90
2018-03-21T23:31:02.531Z,30.73
2018-03-21T23:33:36.111Z,28.03
2018-03-21T23:36:09.786Z,28.23
2018-03-21T23:38:43.392Z,36.33
2018-03-21T23:41:17.021Z,27.10
2018-03-21T23:43:50.771Z,26.87
2018-03-21T23:46:24.388Z,32.47
2018-03-21T23:48:57.991Z,33.50
2018-03-21T23:51:31.759Z,34.43
2018-03-21T23:54:05.326Z,33.03
2018-03-21T23:56:38.945Z,28.57
2018-03-21T23:59:12.642Z,33.40
